Terminal Aerodrome Forecast
Issued by NWS

Home | Current Version | Previous Version | Text Only | Print | Product List | Glossary On
Versions: 1 2 3 4 5 6 7 8 9 10 11 12 13 14 15 16
000
FTUS43 KPAH 211100
TAFCGI
TAF
KCGI 211130Z 2112/2212 00000KT 2SM BR BCFG SKC
     FM211330 36006KT P6SM FEW040
     FM220200 04004KT P6SM SKC
     FM220900 04003KT 4SM BR MIFG SKC=

USA.gov is the U.S. government's official web portal to all federal, state and local government web resources and services.